sensor_id;sensor_type;location;lat;lon;timestamp;P1;durP1;ratioP1;P2;durP2;ratioP2
36597;SDS011;22607;49.550;11.940;2022-08-21T00:02:01;8.48;;;3.55;;
36597;SDS011;22607;49.550;11.940;2022-08-21T00:04:29;9.50;;;4.18;;
36597;SDS011;22607;49.550;11.940;2022-08-21T00:06:57;7.95;;;4.38;;
36597;SDS011;22607;49.550;11.940;2022-08-21T00:09:25;9.48;;;4.68;;
36597;SDS011;22607;49.550;11.940;2022-08-21T00:11:51;8.00;;;4.05;;
36597;SDS011;22607;49.550;11.940;2022-08-21T00:14:19;7.82;;;3.42;;
36597;SDS011;22607;49.550;11.940;2022-08-21T00:16:46;9.40;;;4.07;;
36597;SDS011;22607;49.550;11.940;2022-08-21T00:19:12;8.45;;;4.00;;
36597;SDS011;22607;49.550;11.940;2022-08-21T00:21:39;10.82;;;4.50;;
36597;SDS011;22607;49.550;11.940;2022-08-21T00:24:09;8.82;;;3.95;;
36597;SDS011;22607;49.550;11.940;2022-08-21T00:26:36;10.65;;;4.50;;
36597;SDS011;22607;49.550;11.940;2022-08-21T00:29:03;12.00;;;4.10;;
36597;SDS011;22607;49.550;11.940;2022-08-21T00:31:30;19.33;;;5.10;;
36597;SDS011;22607;49.550;11.940;2022-08-21T00:33:57;21.25;;;4.55;;
36597;SDS011;22607;49.550;11.940;2022-08-21T00:36:26;8.30;;;3.80;;
36597;SDS011;22607;49.550;11.940;2022-08-21T00:38:53;30.63;;;4.70;;
36597;SDS011;22607;49.550;11.940;2022-08-21T00:41:20;9.10;;;3.20;;
36597;SDS011;22607;49.550;11.940;2022-08-21T00:44:04;20.17;;;4.05;;
36597;SDS011;22607;49.550;11.940;2022-08-21T00:46:34;11.25;;;3.55;;
36597;SDS011;22607;49.550;11.940;2022-08-21T00:49:02;8.23;;;3.60;;
36597;SDS011;22607;49.550;11.940;2022-08-21T00:51:33;8.35;;;3.20;;
36597;SDS011;22607;49.550;11.940;2022-08-21T00:54:04;8.77;;;3.40;;
36597;SDS011;22607;49.550;11.940;2022-08-21T00:56:44;7.78;;;3.08;;
36597;SDS011;22607;49.550;11.940;2022-08-21T00:59:13;7.20;;;3.33;;
36597;SDS011;22607;49.550;11.940;2022-08-21T01:01:40;8.32;;;2.72;;
36597;SDS011;22607;49.550;11.940;2022-08-21T01:04:07;7.47;;;2.60;;
36597;SDS011;22607;49.550;11.940;2022-08-21T01:06:33;8.25;;;3.45;;
36597;SDS011;22607;49.550;11.940;2022-08-21T01:09:01;7.40;;;3.50;;
36597;SDS011;22607;49.550;11.940;2022-08-21T01:11:28;8.00;;;3.45;;
36597;SDS011;22607;49.550;11.940;2022-08-21T01:13:55;6.57;;;3.10;;
36597;SDS011;22607;49.550;11.940;2022-08-21T01:16:22;8.27;;;3.42;;
36597;SDS011;22607;49.550;11.940;2022-08-21T01:18:49;8.95;;;2.92;;
36597;SDS011;22607;49.550;11.940;2022-08-21T01:21:24;8.45;;;3.00;;
36597;SDS011;22607;49.550;11.940;2022-08-21T01:23:54;7.93;;;3.30;;
36597;SDS011;22607;49.550;11.940;2022-08-21T01:26:23;7.38;;;3.10;;
36597;SDS011;22607;49.550;11.940;2022-08-21T01:29:02;7.25;;;2.97;;
36597;SDS011;22607;49.550;11.940;2022-08-21T01:31:33;7.90;;;3.30;;
36597;SDS011;22607;49.550;11.940;2022-08-21T01:34:00;8.90;;;3.75;;
36597;SDS011;22607;49.550;11.940;2022-08-21T01:36:27;8.90;;;3.97;;
36597;SDS011;22607;49.550;11.940;2022-08-21T01:38:55;7.47;;;3.40;;
36597;SDS011;22607;49.550;11.940;2022-08-21T01:41:22;8.57;;;4.03;;
36597;SDS011;22607;49.550;11.940;2022-08-21T01:43:49;8.15;;;3.33;;
36597;SDS011;22607;49.550;11.940;2022-08-21T01:46:16;7.70;;;3.50;;
36597;SDS011;22607;49.550;11.940;2022-08-21T01:48:43;8.55;;;3.88;;
36597;SDS011;22607;49.550;11.940;2022-08-21T01:51:10;7.80;;;3.28;;
36597;SDS011;22607;49.550;11.940;2022-08-21T01:53:37;7.75;;;3.60;;
36597;SDS011;22607;49.550;11.940;2022-08-21T01:56:07;9.98;;;4.18;;
36597;SDS011;22607;49.550;11.940;2022-08-21T01:58:38;9.07;;;4.05;;
36597;SDS011;22607;49.550;11.940;2022-08-21T02:01:05;8.75;;;3.97;;
36597;SDS011;22607;49.550;11.940;2022-08-21T02:03:33;9.10;;;4.00;;
36597;SDS011;22607;49.550;11.940;2022-08-21T02:06:01;7.47;;;3.33;;
36597;SDS011;22607;49.550;11.940;2022-08-21T02:08:30;7.32;;;3.00;;
36597;SDS011;22607;49.550;11.940;2022-08-21T02:10:56;8.50;;;3.47;;
36597;SDS011;22607;49.550;11.940;2022-08-21T02:13:23;7.55;;;3.28;;
36597;SDS011;22607;49.550;11.940;2022-08-21T02:15:50;7.60;;;3.28;;
36597;SDS011;22607;49.550;11.940;2022-08-21T02:18:17;7.40;;;3.17;;
36597;SDS011;22607;49.550;11.940;2022-08-21T02:20:47;7.70;;;3.38;;
36597;SDS011;22607;49.550;11.940;2022-08-21T02:23:21;10.80;;;4.28;;
36597;SDS011;22607;49.550;11.940;2022-08-21T02:25:53;13.80;;;4.32;;
36597;SDS011;22607;49.550;11.940;2022-08-21T02:28:23;10.15;;;3.97;;
36597;SDS011;22607;49.550;11.940;2022-08-21T02:30:53;9.27;;;4.63;;
36597;SDS011;22607;49.550;11.940;2022-08-21T02:33:21;8.02;;;3.67;;
36597;SDS011;22607;49.550;11.940;2022-08-21T02:35:48;8.20;;;3.25;;
36597;SDS011;22607;49.550;11.940;2022-08-21T02:38:16;8.43;;;3.88;;
36597;SDS011;22607;49.550;11.940;2022-08-21T02:40:46;7.30;;;3.40;;
36597;SDS011;22607;49.550;11.940;2022-08-21T02:43:17;13.15;;;4.38;;
36597;SDS011;22607;49.550;11.940;2022-08-21T02:45:45;9.20;;;3.50;;
36597;SDS011;22607;49.550;11.940;2022-08-21T02:48:14;9.02;;;3.50;;
36597;SDS011;22607;49.550;11.940;2022-08-21T02:50:46;10.32;;;3.90;;
36597;SDS011;22607;49.550;11.940;2022-08-21T02:53:14;9.43;;;3.53;;
36597;SDS011;22607;49.550;11.940;2022-08-21T02:55:46;9.93;;;3.63;;
36597;SDS011;22607;49.550;11.940;2022-08-21T02:58:16;9.38;;;3.90;;
36597;SDS011;22607;49.550;11.940;2022-08-21T03:00:48;8.73;;;3.38;;
36597;SDS011;22607;49.550;11.940;2022-08-21T03:03:16;8.50;;;3.42;;
36597;SDS011;22607;49.550;11.940;2022-08-21T03:05:43;8.55;;;3.38;;
36597;SDS011;22607;49.550;11.940;2022-08-21T03:08:11;7.65;;;3.00;;
36597;SDS011;22607;49.550;11.940;2022-08-21T03:10:41;8.10;;;3.47;;
36597;SDS011;22607;49.550;11.940;2022-08-21T03:13:10;10.37;;;3.40;;
36597;SDS011;22607;49.550;11.940;2022-08-21T03:15:37;11.68;;;3.80;;
36597;SDS011;22607;49.550;11.940;2022-08-21T03:18:10;11.13;;;3.80;;
36597;SDS011;22607;49.550;11.940;2022-08-21T03:20:39;13.40;;;3.70;;
36597;SDS011;22607;49.550;11.940;2022-08-21T03:23:07;8.52;;;3.42;;
36597;SDS011;22607;49.550;11.940;2022-08-21T03:25:39;9.13;;;4.35;;
36597;SDS011;22607;49.550;11.940;2022-08-21T03:28:08;11.68;;;5.38;;
36597;SDS011;22607;49.550;11.940;2022-08-21T03:30:39;10.15;;;5.10;;
36597;SDS011;22607;49.550;11.940;2022-08-21T03:33:07;9.35;;;4.30;;
36597;SDS011;22607;49.550;11.940;2022-08-21T03:35:37;10.52;;;4.95;;
36597;SDS011;22607;49.550;11.940;2022-08-21T03:38:04;12.30;;;5.78;;
36597;SDS011;22607;49.550;11.940;2022-08-21T03:40:30;10.82;;;5.50;;
36597;SDS011;22607;49.550;11.940;2022-08-21T03:42:57;13.70;;;5.40;;
36597;SDS011;22607;49.550;11.940;2022-08-21T03:45:25;8.93;;;4.60;;
36597;SDS011;22607;49.550;11.940;2022-08-21T03:47:58;13.07;;;5.07;;
36597;SDS011;22607;49.550;11.940;2022-08-21T03:50:29;25.30;;;5.43;;
36597;SDS011;22607;49.550;11.940;2022-08-21T03:53:00;9.40;;;4.38;;
36597;SDS011;22607;49.550;11.940;2022-08-21T03:55:27;9.68;;;4.30;;
36597;SDS011;22607;49.550;11.940;2022-08-21T03:57:54;10.15;;;4.30;;
36597;SDS011;22607;49.550;11.940;2022-08-21T04:00:22;11.05;;;3.80;;
36597;SDS011;22607;49.550;11.940;2022-08-21T04:02:49;12.35;;;4.97;;
36597;SDS011;22607;49.550;11.940;2022-08-21T04:05:17;18.83;;;5.63;;
36597;SDS011;22607;49.550;11.940;2022-08-21T04:07:57;14.88;;;5.05;;
36597;SDS011;22607;49.550;11.940;2022-08-21T04:10:26;11.13;;;4.68;;
36597;SDS011;22607;49.550;11.940;2022-08-21T04:12:54;10.23;;;4.72;;
36597;SDS011;22607;49.550;11.940;2022-08-21T04:15:23;10.23;;;5.32;;
36597;SDS011;22607;49.550;11.940;2022-08-21T04:17:51;33.63;;;7.95;;
36597;SDS011;22607;49.550;11.940;2022-08-21T04:20:19;35.03;;;7.70;;
36597;SDS011;22607;49.550;11.940;2022-08-21T04:22:48;25.98;;;7.43;;
36597;SDS011;22607;49.550;11.940;2022-08-21T04:25:18;15.18;;;6.15;;
36597;SDS011;22607;49.550;11.940;2022-08-21T04:27:46;16.00;;;5.93;;
36597;SDS011;22607;49.550;11.940;2022-08-21T04:30:13;24.27;;;6.63;;
36597;SDS011;22607;49.550;11.940;2022-08-21T04:32:42;11.70;;;6.25;;
36597;SDS011;22607;49.550;11.940;2022-08-21T04:35:10;13.88;;;6.68;;
36597;SDS011;22607;49.550;11.940;2022-08-21T04:37:37;18.10;;;7.43;;
36597;SDS011;22607;49.550;11.940;2022-08-21T04:40:09;21.15;;;8.88;;
36597;SDS011;22607;49.550;11.940;2022-08-21T04:42:42;20.95;;;8.20;;
36597;SDS011;22607;49.550;11.940;2022-08-21T04:45:15;10.65;;;5.20;;
36597;SDS011;22607;49.550;11.940;2022-08-21T04:47:50;12.95;;;5.97;;
36597;SDS011;22607;49.550;11.940;2022-08-21T04:50:20;15.30;;;7.90;;
36597;SDS011;22607;49.550;11.940;2022-08-21T04:52:51;15.38;;;7.82;;
36597;SDS011;22607;49.550;11.940;2022-08-21T04:55:18;14.38;;;7.63;;
36597;SDS011;22607;49.550;11.940;2022-08-21T04:57:46;13.27;;;7.18;;
36597;SDS011;22607;49.550;11.940;2022-08-21T05:00:14;13.50;;;7.43;;
36597;SDS011;22607;49.550;11.940;2022-08-21T05:02:45;12.27;;;7.43;;
36597;SDS011;22607;49.550;11.940;2022-08-21T05:05:14;11.73;;;6.15;;
36597;SDS011;22607;49.550;11.940;2022-08-21T05:07:41;12.05;;;6.95;;
36597;SDS011;22607;49.550;11.940;2022-08-21T05:10:10;11.10;;;6.60;;
36597;SDS011;22607;49.550;11.940;2022-08-21T05:12:39;10.63;;;5.53;;
36597;SDS011;22607;49.550;11.940;2022-08-21T05:15:08;10.05;;;5.80;;
36597;SDS011;22607;49.550;11.940;2022-08-21T05:17:39;10.95;;;6.28;;
36597;SDS011;22607;49.550;11.940;2022-08-21T05:20:08;16.20;;;10.50;;
36597;SDS011;22607;49.550;11.940;2022-08-21T05:22:35;13.30;;;8.20;;
36597;SDS011;22607;49.550;11.940;2022-08-21T05:25:03;14.20;;;8.90;;
36597;SDS011;22607;49.550;11.940;2022-08-21T05:27:37;13.20;;;7.57;;
36597;SDS011;22607;49.550;11.940;2022-08-21T05:30:08;13.15;;;8.23;;
36597;SDS011;22607;49.550;11.940;2022-08-21T05:32:35;13.67;;;8.37;;
36597;SDS011;22607;49.550;11.940;2022-08-21T05:35:06;16.40;;;9.40;;
36597;SDS011;22607;49.550;11.940;2022-08-21T05:37:34;18.85;;;12.18;;
36597;SDS011;22607;49.550;11.940;2022-08-21T05:40:02;17.60;;;11.52;;
36597;SDS011;22607;49.550;11.940;2022-08-21T05:42:48;17.70;;;11.73;;
36597;SDS011;22607;49.550;11.940;2022-08-21T05:45:22;18.67;;;12.40;;
36597;SDS011;22607;49.550;11.940;2022-08-21T05:48:08;18.08;;;11.10;;
36597;SDS011;22607;49.550;11.940;2022-08-21T05:50:43;16.33;;;10.50;;
36597;SDS011;22607;49.550;11.940;2022-08-21T05:53:11;18.85;;;12.00;;
36597;SDS011;22607;49.550;11.940;2022-08-21T05:55:38;18.35;;;11.43;;
36597;SDS011;22607;49.550;11.940;2022-08-21T05:58:12;22.67;;;15.10;;
36597;SDS011;22607;49.550;11.940;2022-08-21T06:00:42;20.23;;;13.57;;
36597;SDS011;22607;49.550;11.940;2022-08-21T06:03:18;19.15;;;13.15;;
36597;SDS011;22607;49.550;11.940;2022-08-21T06:05:47;19.33;;;13.45;;
36597;SDS011;22607;49.550;11.940;2022-08-21T06:08:14;18.90;;;11.57;;
36597;SDS011;22607;49.550;11.940;2022-08-21T06:10:42;19.05;;;13.40;;
36597;SDS011;22607;49.550;11.940;2022-08-21T06:13:10;19.40;;;12.57;;
36597;SDS011;22607;49.550;11.940;2022-08-21T06:15:37;20.55;;;13.20;;
36597;SDS011;22607;49.550;11.940;2022-08-21T06:18:04;22.92;;;15.27;;
36597;SDS011;22607;49.550;11.940;2022-08-21T06:20:31;22.67;;;14.95;;
36597;SDS011;22607;49.550;11.940;2022-08-21T06:22:58;20.15;;;13.55;;
36597;SDS011;22607;49.550;11.940;2022-08-21T06:25:25;23.40;;;14.50;;
36597;SDS011;22607;49.550;11.940;2022-08-21T06:27:52;22.45;;;15.65;;
36597;SDS011;22607;49.550;11.940;2022-08-21T06:30:18;28.30;;;19.15;;
36597;SDS011;22607;49.550;11.940;2022-08-21T06:32:46;25.15;;;16.75;;
36597;SDS011;22607;49.550;11.940;2022-08-21T06:35:12;30.15;;;19.67;;
36597;SDS011;22607;49.550;11.940;2022-08-21T06:37:39;26.05;;;17.90;;
36597;SDS011;22607;49.550;11.940;2022-08-21T06:40:06;32.05;;;21.23;;
36597;SDS011;22607;49.550;11.940;2022-08-21T06:42:38;21.88;;;15.00;;
36597;SDS011;22607;49.550;11.940;2022-08-21T06:45:06;23.63;;;14.90;;
36597;SDS011;22607;49.550;11.940;2022-08-21T06:47:33;23.83;;;16.15;;
36597;SDS011;22607;49.550;11.940;2022-08-21T06:50:00;21.75;;;15.25;;
36597;SDS011;22607;49.550;11.940;2022-08-21T06:52:27;22.30;;;15.10;;
36597;SDS011;22607;49.550;11.940;2022-08-21T06:54:53;27.02;;;20.42;;
36597;SDS011;22607;49.550;11.940;2022-08-21T06:57:20;24.67;;;18.55;;
36597;SDS011;22607;49.550;11.940;2022-08-21T06:59:47;26.05;;;17.80;;
36597;SDS011;22607;49.550;11.940;2022-08-21T07:02:14;22.70;;;15.68;;
36597;SDS011;22607;49.550;11.940;2022-08-21T07:04:41;28.23;;;19.75;;
36597;SDS011;22607;49.550;11.940;2022-08-21T07:07:07;22.23;;;15.70;;
36597;SDS011;22607;49.550;11.940;2022-08-21T07:09:34;24.50;;;16.42;;
36597;SDS011;22607;49.550;11.940;2022-08-21T07:12:01;23.13;;;14.98;;
36597;SDS011;22607;49.550;11.940;2022-08-21T07:14:28;25.80;;;17.60;;
36597;SDS011;22607;49.550;11.940;2022-08-21T07:16:55;22.58;;;15.43;;
36597;SDS011;22607;49.550;11.940;2022-08-21T07:19:21;24.63;;;16.10;;
36597;SDS011;22607;49.550;11.940;2022-08-21T07:21:48;26.15;;;17.05;;
36597;SDS011;22607;49.550;11.940;2022-08-21T07:24:15;24.83;;;18.27;;
36597;SDS011;22607;49.550;11.940;2022-08-21T07:26:42;24.70;;;17.13;;
36597;SDS011;22607;49.550;11.940;2022-08-21T07:29:08;26.33;;;18.58;;
36597;SDS011;22607;49.550;11.940;2022-08-21T07:31:37;23.60;;;16.40;;
36597;SDS011;22607;49.550;11.940;2022-08-21T07:34:04;24.15;;;16.95;;
36597;SDS011;22607;49.550;11.940;2022-08-21T07:36:31;22.15;;;16.00;;
36597;SDS011;22607;49.550;11.940;2022-08-21T07:39:00;24.67;;;16.17;;
36597;SDS011;22607;49.550;11.940;2022-08-21T07:41:27;25.17;;;17.65;;
36597;SDS011;22607;49.550;11.940;2022-08-21T07:43:56;22.90;;;15.60;;
36597;SDS011;22607;49.550;11.940;2022-08-21T07:46:23;26.25;;;19.00;;
36597;SDS011;22607;49.550;11.940;2022-08-21T07:48:52;26.40;;;18.65;;
36597;SDS011;22607;49.550;11.940;2022-08-21T07:51:20;25.23;;;16.92;;
36597;SDS011;22607;49.550;11.940;2022-08-21T07:53:50;25.55;;;18.52;;
36597;SDS011;22607;49.550;11.940;2022-08-21T07:56:19;24.95;;;18.98;;
36597;SDS011;22607;49.550;11.940;2022-08-21T07:58:46;26.67;;;20.02;;
36597;SDS011;22607;49.550;11.940;2022-08-21T08:01:13;28.95;;;21.65;;
36597;SDS011;22607;49.550;11.940;2022-08-21T08:03:40;23.45;;;15.93;;
36597;SDS011;22607;49.550;11.940;2022-08-21T08:06:07;26.52;;;19.15;;
36597;SDS011;22607;49.550;11.940;2022-08-21T08:08:39;21.35;;;14.27;;
36597;SDS011;22607;49.550;11.940;2022-08-21T08:11:08;24.55;;;17.25;;
36597;SDS011;22607;49.550;11.940;2022-08-21T08:13:41;22.25;;;16.48;;
36597;SDS011;22607;49.550;11.940;2022-08-21T08:16:11;20.27;;;14.30;;
36597;SDS011;22607;49.550;11.940;2022-08-21T08:18:37;20.80;;;14.00;;
36597;SDS011;22607;49.550;11.940;2022-08-21T08:21:04;24.92;;;18.00;;
36597;SDS011;22607;49.550;11.940;2022-08-21T08:23:32;29.67;;;20.67;;
36597;SDS011;22607;49.550;11.940;2022-08-21T08:25:58;23.88;;;16.83;;
36597;SDS011;22607;49.550;11.940;2022-08-21T08:28:26;26.70;;;20.27;;
36597;SDS011;22607;49.550;11.940;2022-08-21T08:30:53;25.88;;;19.85;;
36597;SDS011;22607;49.550;11.940;2022-08-21T08:33:20;23.67;;;17.17;;
36597;SDS011;22607;49.550;11.940;2022-08-21T08:35:47;20.42;;;14.82;;
36597;SDS011;22607;49.550;11.940;2022-08-21T08:38:16;22.52;;;16.83;;
36597;SDS011;22607;49.550;11.940;2022-08-21T08:40:55;22.27;;;15.88;;
36597;SDS011;22607;49.550;11.940;2022-08-21T08:43:27;23.20;;;15.15;;
36597;SDS011;22607;49.550;11.940;2022-08-21T08:45:56;22.20;;;15.98;;
36597;SDS011;22607;49.550;11.940;2022-08-21T08:51:00;23.90;;;17.80;;
36597;SDS011;22607;49.550;11.940;2022-08-21T08:53:32;24.02;;;17.65;;
36597;SDS011;22607;49.550;11.940;2022-08-21T08:56:04;22.17;;;16.02;;
36597;SDS011;22607;49.550;11.940;2022-08-21T08:58:33;21.65;;;17.88;;
36597;SDS011;22607;49.550;11.940;2022-08-21T09:01:05;19.33;;;13.43;;
36597;SDS011;22607;49.550;11.940;2022-08-21T09:03:40;19.65;;;14.55;;
36597;SDS011;22607;49.550;11.940;2022-08-21T09:09:03;24.40;;;19.02;;
36597;SDS011;22607;49.550;11.940;2022-08-21T09:12:01;21.98;;;16.10;;
36597;SDS011;22607;49.550;11.940;2022-08-21T09:15:02;24.20;;;17.17;;
36597;SDS011;22607;49.550;11.940;2022-08-21T09:20:23;21.23;;;14.95;;
36597;SDS011;22607;49.550;11.940;2022-08-21T09:23:18;25.80;;;17.30;;
36597;SDS011;22607;49.550;11.940;2022-08-21T09:28:35;22.80;;;16.35;;
36597;SDS011;22607;49.550;11.940;2022-08-21T09:31:04;24.83;;;18.02;;
36597;SDS011;22607;49.550;11.940;2022-08-21T09:33:33;24.00;;;18.63;;
36597;SDS011;22607;49.550;11.940;2022-08-21T09:36:00;23.88;;;17.35;;
36597;SDS011;22607;49.550;11.940;2022-08-21T09:38:32;25.23;;;17.63;;
36597;SDS011;22607;49.550;11.940;2022-08-21T09:41:07;25.65;;;19.23;;
36597;SDS011;22607;49.550;11.940;2022-08-21T09:43:37;25.25;;;17.73;;
36597;SDS011;22607;49.550;11.940;2022-08-21T09:46:06;19.13;;;14.50;;
36597;SDS011;22607;49.550;11.940;2022-08-21T09:48:44;21.90;;;16.02;;
36597;SDS011;22607;49.550;11.940;2022-08-21T09:51:15;19.95;;;14.95;;
36597;SDS011;22607;49.550;11.940;2022-08-21T09:56:40;19.45;;;13.98;;
36597;SDS011;22607;49.550;11.940;2022-08-21T09:59:40;18.85;;;13.60;;
36597;SDS011;22607;49.550;11.940;2022-08-21T10:04:58;21.48;;;17.10;;
36597;SDS011;22607;49.550;11.940;2022-08-21T10:07:42;17.60;;;12.63;;
36597;SDS011;22607;49.550;11.940;2022-08-21T10:10:29;19.45;;;14.57;;
36597;SDS011;22607;49.550;11.940;2022-08-21T10:16:13;15.77;;;11.30;;
36597;SDS011;22607;49.550;11.940;2022-08-21T10:21:31;16.67;;;11.80;;
36597;SDS011;22607;49.550;11.940;2022-08-21T10:29:57;16.23;;;11.57;;
36597;SDS011;22607;49.550;11.940;2022-08-21T10:57:07;13.07;;;8.77;;
36597;SDS011;22607;49.550;11.940;2022-08-21T11:00:05;14.80;;;8.48;;
36597;SDS011;22607;49.550;11.940;2022-08-21T11:02:42;13.15;;;9.70;;
36597;SDS011;22607;49.550;11.940;2022-08-21T11:05:20;13.07;;;8.20;;
36597;SDS011;22607;49.550;11.940;2022-08-21T11:08:00;12.00;;;7.70;;
36597;SDS011;22607;49.550;11.940;2022-08-21T11:11:18;13.10;;;8.13;;
36597;SDS011;22607;49.550;11.940;2022-08-21T11:13:48;10.60;;;6.63;;
36597;SDS011;22607;49.550;11.940;2022-08-21T11:19:22;10.77;;;6.88;;
36597;SDS011;22607;49.550;11.940;2022-08-21T11:30:05;10.07;;;6.10;;
36597;SDS011;22607;49.550;11.940;2022-08-21T11:35:51;10.75;;;6.28;;
36597;SDS011;22607;49.550;11.940;2022-08-21T11:38:27;10.32;;;6.70;;
36597;SDS011;22607;49.550;11.940;2022-08-21T11:43:48;10.27;;;5.90;;
36597;SDS011;22607;49.550;11.940;2022-08-21T11:51:48;12.55;;;7.18;;
36597;SDS011;22607;49.550;11.940;2022-08-21T11:54:42;10.27;;;6.05;;
36597;SDS011;22607;49.550;11.940;2022-08-21T11:57:21;10.73;;;5.78;;
36597;SDS011;22607;49.550;11.940;2022-08-21T12:02:25;9.88;;;5.68;;
36597;SDS011;22607;49.550;11.940;2022-08-21T12:05:00;11.57;;;6.68;;
36597;SDS011;22607;49.550;11.940;2022-08-21T12:07:38;9.80;;;5.90;;
36597;SDS011;22607;49.550;11.940;2022-08-21T12:10:09;10.40;;;6.22;;
36597;SDS011;22607;49.550;11.940;2022-08-21T12:12:47;9.40;;;5.25;;
36597;SDS011;22607;49.550;11.940;2022-08-21T12:18:06;8.85;;;4.95;;
36597;SDS011;22607;49.550;11.940;2022-08-21T12:26:23;8.88;;;5.47;;
36597;SDS011;22607;49.550;11.940;2022-08-21T12:29:11;9.50;;;5.85;;
36597;SDS011;22607;49.550;11.940;2022-08-21T12:32:03;10.00;;;4.70;;
36597;SDS011;22607;49.550;11.940;2022-08-21T12:34:48;8.48;;;4.43;;
36597;SDS011;22607;49.550;11.940;2022-08-21T12:37:24;8.43;;;4.50;;
36597;SDS011;22607;49.550;11.940;2022-08-21T12:40:02;9.13;;;4.93;;
36597;SDS011;22607;49.550;11.940;2022-08-21T12:42:38;10.18;;;5.03;;
36597;SDS011;22607;49.550;11.940;2022-08-21T12:45:16;8.38;;;4.18;;
36597;SDS011;22607;49.550;11.940;2022-08-21T12:50:36;7.28;;;3.38;;
36597;SDS011;22607;49.550;11.940;2022-08-21T12:56:03;8.10;;;3.75;;
36597;SDS011;22607;49.550;11.940;2022-08-21T12:58:35;10.57;;;4.85;;
36597;SDS011;22607;49.550;11.940;2022-08-21T13:01:03;9.13;;;4.28;;
36597;SDS011;22607;49.550;11.940;2022-08-21T13:03:30;8.23;;;3.97;;
36597;SDS011;22607;49.550;11.940;2022-08-21T13:08:30;8.05;;;3.80;;
36597;SDS011;22607;49.550;11.940;2022-08-21T13:11:06;6.80;;;3.05;;
36597;SDS011;22607;49.550;11.940;2022-08-21T13:13:40;7.43;;;3.38;;
36597;SDS011;22607;49.550;11.940;2022-08-21T13:16:18;7.53;;;3.40;;
36597;SDS011;22607;49.550;11.940;2022-08-21T13:21:30;7.72;;;3.60;;
36597;SDS011;22607;49.550;11.940;2022-08-21T13:27:01;6.90;;;2.95;;
36597;SDS011;22607;49.550;11.940;2022-08-21T13:29:31;6.85;;;3.08;;
36597;SDS011;22607;49.550;11.940;2022-08-21T13:32:04;7.15;;;3.20;;
36597;SDS011;22607;49.550;11.940;2022-08-21T13:34:34;6.85;;;3.10;;
36597;SDS011;22607;49.550;11.940;2022-08-21T13:37:06;7.53;;;3.42;;
36597;SDS011;22607;49.550;11.940;2022-08-21T13:39:35;7.20;;;3.35;;
36597;SDS011;22607;49.550;11.940;2022-08-21T13:42:04;6.93;;;2.80;;
36597;SDS011;22607;49.550;11.940;2022-08-21T13:44:41;7.32;;;3.28;;
36597;SDS011;22607;49.550;11.940;2022-08-21T13:47:12;8.30;;;3.30;;
36597;SDS011;22607;49.550;11.940;2022-08-21T13:52:17;7.32;;;3.20;;
36597;SDS011;22607;49.550;11.940;2022-08-21T13:55:00;7.18;;;3.30;;
36597;SDS011;22607;49.550;11.940;2022-08-21T13:57:38;7.00;;;2.92;;
36597;SDS011;22607;49.550;11.940;2022-08-21T14:02:41;6.45;;;2.58;;
36597;SDS011;22607;49.550;11.940;2022-08-21T14:07:52;6.85;;;2.72;;
36597;SDS011;22607;49.550;11.940;2022-08-21T14:10:28;6.68;;;2.88;;
36597;SDS011;22607;49.550;11.940;2022-08-21T14:13:03;6.82;;;2.58;;
36597;SDS011;22607;49.550;11.940;2022-08-21T14:15:33;6.63;;;2.40;;
36597;SDS011;22607;49.550;11.940;2022-08-21T14:18:14;6.97;;;2.90;;
36597;SDS011;22607;49.550;11.940;2022-08-21T14:20:44;6.90;;;2.85;;
36597;SDS011;22607;49.550;11.940;2022-08-21T14:23:12;6.65;;;2.70;;
36597;SDS011;22607;49.550;11.940;2022-08-21T14:25:50;6.47;;;2.60;;
36597;SDS011;22607;49.550;11.940;2022-08-21T14:29:00;7.20;;;2.85;;
36597;SDS011;22607;49.550;11.940;2022-08-21T14:31:11;7.25;;;2.75;;
36597;SDS011;22607;49.550;11.940;2022-08-21T14:33:45;7.20;;;2.80;;
36597;SDS011;22607;49.550;11.940;2022-08-21T14:36:13;6.15;;;2.53;;
36597;SDS011;22607;49.550;11.940;2022-08-21T14:38:40;6.53;;;2.90;;
36597;SDS011;22607;49.550;11.940;2022-08-21T14:41:15;6.55;;;2.55;;
36597;SDS011;22607;49.550;11.940;2022-08-21T14:43:46;6.95;;;2.58;;
36597;SDS011;22607;49.550;11.940;2022-08-21T14:46:33;6.47;;;2.65;;
36597;SDS011;22607;49.550;11.940;2022-08-21T14:49:06;6.97;;;2.70;;
36597;SDS011;22607;49.550;11.940;2022-08-21T14:51:32;6.60;;;2.38;;
36597;SDS011;22607;49.550;11.940;2022-08-21T14:53:59;6.97;;;2.67;;
36597;SDS011;22607;49.550;11.940;2022-08-21T14:56:26;6.75;;;2.90;;
36597;SDS011;22607;49.550;11.940;2022-08-21T14:58:53;6.18;;;2.50;;
36597;SDS011;22607;49.550;11.940;2022-08-21T15:01:22;6.47;;;2.63;;
36597;SDS011;22607;49.550;11.940;2022-08-21T15:03:49;6.90;;;2.53;;
36597;SDS011;22607;49.550;11.940;2022-08-21T15:06:16;5.88;;;2.40;;
36597;SDS011;22607;49.550;11.940;2022-08-21T15:08:43;5.82;;;2.40;;
36597;SDS011;22607;49.550;11.940;2022-08-21T15:11:17;5.25;;;2.33;;
36597;SDS011;22607;49.550;11.940;2022-08-21T15:14:07;6.10;;;2.40;;
36597;SDS011;22607;49.550;11.940;2022-08-21T15:16:36;6.05;;;2.60;;
36597;SDS011;22607;49.550;11.940;2022-08-21T15:19:03;6.50;;;2.70;;
36597;SDS011;22607;49.550;11.940;2022-08-21T15:21:30;6.85;;;2.47;;
36597;SDS011;22607;49.550;11.940;2022-08-21T15:23:56;6.60;;;2.50;;
36597;SDS011;22607;49.550;11.940;2022-08-21T15:26:24;6.15;;;2.33;;
36597;SDS011;22607;49.550;11.940;2022-08-21T15:28:52;6.45;;;2.78;;
36597;SDS011;22607;49.550;11.940;2022-08-21T15:31:18;6.40;;;2.20;;
36597;SDS011;22607;49.550;11.940;2022-08-21T15:33:45;5.90;;;2.20;;
36597;SDS011;22607;49.550;11.940;2022-08-21T15:36:12;6.60;;;2.60;;
36597;SDS011;22607;49.550;11.940;2022-08-21T15:38:38;6.70;;;2.85;;
36597;SDS011;22607;49.550;11.940;2022-08-21T15:41:06;6.88;;;2.40;;
36597;SDS011;22607;49.550;11.940;2022-08-21T15:43:35;6.50;;;2.60;;
36597;SDS011;22607;49.550;11.940;2022-08-21T15:46:17;6.43;;;2.30;;
36597;SDS011;22607;49.550;11.940;2022-08-21T15:48:46;7.03;;;2.70;;
36597;SDS011;22607;49.550;11.940;2022-08-21T15:51:13;6.80;;;2.97;;
36597;SDS011;22607;49.550;11.940;2022-08-21T15:53:42;6.28;;;2.20;;
36597;SDS011;22607;49.550;11.940;2022-08-21T15:56:11;6.13;;;2.40;;
36597;SDS011;22607;49.550;11.940;2022-08-21T15:58:41;6.25;;;2.50;;
36597;SDS011;22607;49.550;11.940;2022-08-21T16:01:07;6.40;;;2.45;;
36597;SDS011;22607;49.550;11.940;2022-08-21T16:03:34;7.25;;;2.20;;
36597;SDS011;22607;49.550;11.940;2022-08-21T16:06:00;7.32;;;2.42;;
36597;SDS011;22607;49.550;11.940;2022-08-21T16:08:27;5.90;;;2.30;;
36597;SDS011;22607;49.550;11.940;2022-08-21T16:10:54;7.13;;;2.40;;
36597;SDS011;22607;49.550;11.940;2022-08-21T16:13:27;6.15;;;2.50;;
36597;SDS011;22607;49.550;11.940;2022-08-21T16:16:00;6.90;;;2.70;;
36597;SDS011;22607;49.550;11.940;2022-08-21T16:18:28;6.22;;;2.60;;
36597;SDS011;22607;49.550;11.940;2022-08-21T16:20:55;6.18;;;2.55;;
36597;SDS011;22607;49.550;11.940;2022-08-21T16:23:23;6.60;;;2.63;;
36597;SDS011;22607;49.550;11.940;2022-08-21T16:25:49;6.60;;;2.70;;
36597;SDS011;22607;49.550;11.940;2022-08-21T16:28:17;7.18;;;2.45;;
36597;SDS011;22607;49.550;11.940;2022-08-21T16:30:47;6.63;;;2.40;;
36597;SDS011;22607;49.550;11.940;2022-08-21T16:33:58;6.30;;;2.40;;